Time;durP1;ratioP1;P1;durP2;ratioP2;P2;SDS_P1;SDS_P2;PMS_P1;PMS_P2;Temp;Humidity;BMP_temperature;BMP_pressure;BME280_temperature;BME280_humidity;BME280_pressure;Samples;Min_cycle;Max_cycle;Signal;HPM_P1;HPM_P2
2024/01/11 00:02:31;;;;;;;42.50;33.27;;;-1.00;47.40;;;;;;20820;6708;276487;-73
2024/01/11 00:05:08;;;;;;;42.50;32.80;;;-0.40;47.00;;;;;;20797;6708;305524;-73
2024/01/11 00:07:43;;;;;;;40.97;32.05;;;-0.40;46.90;;;;;;20820;6708;278325;-73
2024/01/11 00:10:20;;;;;;;41.10;26.00;;;-0.20;46.40;;;;;;21039;6708;117245;-73
2024/01/11 00:12:55;;;;;;;42.10;31.00;;;-0.30;46.20;;;;;;20754;6708;308089;-74
2024/01/11 00:15:30;;;;;;;36.07;24.80;;;-0.40;46.40;;;;;;21037;6708;118035;-72
2024/01/11 00:18:06;;;;;;;33.33;21.93;;;-0.50;46.50;;;;;;21031;6708;117349;-71
2024/01/11 00:20:41;;;;;;;43.07;31.63;;;-0.80;46.90;;;;;;20836;6708;304666;-72
2024/01/11 00:23:17;;;;;;;35.37;23.97;;;-0.80;47.40;;;;;;20966;6708;68929;-72
2024/01/11 00:25:53;;;;;;;38.17;23.17;;;-0.90;47.20;;;;;;21041;6708;71633;-73
2024/01/11 00:28:28;;;;;;;33.47;22.07;;;-1.10;47.40;;;;;;21055;6708;68307;-73
2024/01/11 00:31:04;;;;;;;42.67;31.70;;;-1.30;47.60;;;;;;20843;6708;278991;-73
2024/01/11 00:33:40;;;;;;;43.53;33.10;;;-1.20;48.00;;;;;;20719;6708;307228;-73
2024/01/11 00:36:23;;;;;;;40.47;24.57;;;-0.90;47.60;;;;;;21048;6708;67369;-73
2024/01/11 00:38:59;;;;;;;42.33;22.93;;;-1.00;47.20;;;;;;21051;6708;69306;-74
2024/01/11 00:41:35;;;;;;;39.03;23.20;;;-1.20;47.50;;;;;;21055;6708;67601;-73
2024/01/11 00:44:11;;;;;;;47.03;33.20;;;-1.40;48.20;;;;;;20676;6708;278139;-72
2024/01/11 00:46:46;;;;;;;44.37;27.07;;;-1.40;48.10;;;;;;21055;6708;66514;-73
2024/01/11 00:49:22;;;;;;;52.20;37.17;;;-1.40;47.90;;;;;;20829;6708;305193;-72
2024/01/11 00:51:58;;;;;;;50.87;35.90;;;-1.30;47.90;;;;;;20832;6708;305911;-72
2024/01/11 00:54:33;;;;;;;43.47;28.77;;;-1.00;48.10;;;;;;20854;6708;67337;-73
2024/01/11 00:57:09;;;;;;;41.87;26.43;;;-1.00;47.80;;;;;;21054;6708;68420;-73
2024/01/11 00:59:44;;;;;;;47.60;34.10;;;-1.20;48.10;;;;;;20844;6708;277071;-73
2024/01/11 01:02:20;;;;;;;44.77;34.53;;;-1.10;48.80;;;;;;20834;6708;306799;-72
2024/01/11 01:04:56;;;;;;;45.20;33.85;;;-0.80;48.50;;;;;;20616;6780;278205;-72
2024/01/11 01:07:33;;;;;;;42.07;27.77;;;-0.50;48.30;;;;;;21055;6708;67806;-73
2024/01/11 01:10:09;;;;;;;39.47;23.90;;;-0.60;48.10;;;;;;21055;6708;67911;-72
2024/01/11 01:12:44;;;;;;;38.70;23.67;;;-0.90;48.30;;;;;;21028;6708;67007;-72
2024/01/11 01:15:19;;;;;;;37.37;23.50;;;-1.10;48.60;;;;;;21053;6708;72262;-73
2024/01/11 01:17:55;;;;;;;36.20;21.80;;;-1.40;48.80;;;;;;21058;6708;66910;-72
2024/01/11 01:20:31;;;;;;;44.57;33.33;;;-1.50;48.80;;;;;;20854;6584;291495;-77
2024/01/11 01:23:07;;;;;;;36.20;25.10;;;-1.50;48.80;;;;;;20858;6746;118256;-77
2024/01/11 01:25:42;;;;;;;40.40;23.80;;;-1.40;48.60;;;;;;20931;6747;118324;-76
2024/01/11 01:28:18;;;;;;;48.93;34.73;;;-1.60;48.70;;;;;;20766;6732;306462;-76
2024/01/11 01:30:54;;;;;;;47.63;34.87;;;-1.10;49.60;;;;;;20660;6740;307010;-75
2024/01/11 01:33:30;;;;;;;44.40;32.37;;;-1.10;48.90;;;;;;20671;6730;286601;-75
2024/01/11 01:36:10;;;;;;;40.97;31.40;;;-0.80;48.30;;;;;;20810;6714;275796;-76
2024/01/11 01:38:45;;;;;;;42.25;31.62;;;-0.50;48.20;;;;;;20851;6698;306482;-75
2024/01/11 01:41:21;;;;;;;33.27;23.17;;;-0.30;47.40;;;;;;21003;6713;117055;-76
2024/01/11 01:43:56;;;;;;;41.70;31.53;;;-0.50;47.20;;;;;;20677;6714;307330;-75
2024/01/11 01:46:34;;;;;;;40.43;31.13;;;-0.60;47.40;;;;;;20759;6729;308239;-75
2024/01/11 01:49:08;;;;;;;33.23;23.33;;;-0.40;46.90;;;;;;21048;6699;117618;-76
2024/01/11 01:51:43;;;;;;;35.30;22.40;;;-0.60;46.70;;;;;;21064;6699;118827;-76
2024/01/11 01:54:19;;;;;;;39.97;30.23;;;-0.90;47.20;;;;;;20612;6729;338527;-75
2024/01/11 01:56:54;;;;;;;32.07;24.37;;;-0.90;47.30;;;;;;21003;6714;117317;-76
2024/01/11 01:59:30;;;;;;;38.00;23.43;;;-1.00;47.30;;;;;;20975;6729;117479;-75
2024/01/11 02:02:06;;;;;;;33.63;21.33;;;-1.40;48.60;;;;;;20994;6716;117132;-74
2024/01/11 02:04:42;;;;;;;34.53;21.87;;;-1.50;47.80;;;;;;20817;6731;117554;-75
2024/01/11 02:07:18;;;;;;;33.33;21.10;;;-1.80;48.50;;;;;;20983;6717;117184;-75
2024/01/11 02:09:57;;;;;;;43.97;31.55;;;-1.80;48.50;;;;;;20693;6746;320691;-77
2024/01/11 02:12:29;;;;;;;34.00;22.20;;;-1.70;48.60;;;;;;20952;6731;117145;-77
2024/01/11 02:15:05;;;;;;;32.37;22.07;;;-1.70;48.30;;;;;;20884;6747;117385;-75
2024/01/11 02:17:41;;;;;;;40.80;30.77;;;-1.90;48.30;;;;;;20707;6747;275912;-77
2024/01/11 02:20:16;;;;;;;44.47;33.20;;;-1.80;48.40;;;;;;20773;6724;294266;-75
2024/01/11 02:22:53;;;;;;;43.23;33.13;;;-1.20;47.30;;;;;;20713;6726;279152;-77
2024/01/11 02:25:32;;;;;;;36.83;24.47;;;-1.30;47.50;;;;;;20960;6729;117959;-77
2024/01/11 02:28:08;;;;;;;42.65;31.75;;;-1.30;47.20;;;;;;20845;6699;333907;-78
2024/01/11 02:30:40;;;;;;;41.23;25.00;;;-1.30;47.50;;;;;;20966;6732;117142;-78
2024/01/11 02:33:19;;;;;;;35.70;23.10;;;-1.40;47.50;;;;;;20901;6721;118309;-77
2024/01/11 02:35:55;;;;;;;38.40;23.30;;;-1.60;47.80;;;;;;20969;6746;117322;-77
2024/01/11 02:38:30;;;;;;;34.80;21.67;;;-2.00;48.50;;;;;;20969;6732;118190;-75
2024/01/11 02:41:04;;;;;;;35.93;21.60;;;-2.00;49.10;;;;;;20895;6746;118399;-76
2024/01/11 02:43:40;;;;;;;33.60;20.37;;;-2.20;48.70;;;;;;20845;6738;117914;-77
2024/01/11 02:46:16;;;;;;;32.60;20.27;;;-2.30;49.00;;;;;;21011;6717;118370;-75
2024/01/11 02:48:52;;;;;;;41.67;30.70;;;-2.40;49.30;;;;;;20760;6724;307325;-76
2024/01/11 02:51:27;;;;;;;37.60;24.13;;;-2.10;49.80;;;;;;20944;6738;118498;-75
2024/01/11 02:54:02;;;;;;;35.43;21.53;;;-2.00;49.40;;;;;;20876;6720;117381;-75
2024/01/11 02:56:38;;;;;;;37.47;21.93;;;-2.10;49.30;;;;;;20992;6720;118236;-74
2024/01/11 02:59:15;;;;;;;31.37;20.90;;;-2.20;49.40;;;;;;20895;6746;118033;-75
2024/01/11 03:01:51;;;;;;;43.47;31.03;;;-2.20;49.60;;;;;;20759;6731;278920;-77
2024/01/11 03:04:27;;;;;;;43.67;32.27;;;-2.20;49.60;;;;;;20556;6746;281065;-77
2024/01/11 03:07:02;;;;;;;40.93;24.47;;;-1.80;49.20;;;;;;20993;6717;117322;-78
2024/01/11 03:09:38;;;;;;;42.75;31.83;;;-1.70;48.90;;;;;;20781;6723;276761;-77
2024/01/11 03:12:14;;;;;;;39.50;24.00;;;-1.60;49.10;;;;;;20973;6729;117673;-75
2024/01/11 03:14:50;;;;;;;35.60;21.50;;;-1.80;49.00;;;;;;20786;6724;118688;-76
2024/01/11 03:17:26;;;;;;;36.10;21.50;;;-1.80;48.90;;;;;;20915;6746;117660;-75
2024/01/11 03:20:03;;;;;;;41.93;30.50;;;-2.00;49.20;;;;;;20726;6739;307552;-75
2024/01/11 03:22:37;;;;;;;42.80;31.47;;;-1.80;49.20;;;;;;20723;6736;306923;-75
2024/01/11 03:25:12;;;;;;;37.27;24.50;;;-1.50;48.50;;;;;;21017;6709;119756;-75
2024/01/11 03:27:49;;;;;;;32.73;21.30;;;-1.80;48.30;;;;;;20958;6735;120918;-75
2024/01/11 03:30:24;;;;;;;42.80;29.63;;;-1.80;48.30;;;;;;20763;6723;337276;-75
2024/01/11 03:33:00;;;;;;;34.30;22.80;;;-1.70;48.80;;;;;;20911;6723;118120;-75
2024/01/11 03:35:38;;;;;;;39.97;29.93;;;-1.70;48.60;;;;;;20809;6714;277313;-75
2024/01/11 03:38:11;;;;;;;39.80;30.90;;;-1.60;48.60;;;;;;20815;6714;277489;-75
2024/01/11 03:40:47;;;;;;;33.20;22.57;;;-1.30;47.90;;;;;;21000;6717;118400;-75
2024/01/11 03:43:22;;;;;;;34.50;23.00;;;-1.30;47.70;;;;;;20856;6742;117419;-75
2024/01/11 03:45:58;;;;;;;40.80;29.97;;;-1.60;48.00;;;;;;20722;6742;280185;-75
2024/01/11 03:48:35;;;;;;;43.73;32.43;;;-1.50;48.30;;;;;;20738;6738;276812;-75
2024/01/11 03:51:09;;;;;;;34.33;23.97;;;-1.30;47.50;;;;;;20912;6742;118697;-75
2024/01/11 03:53:45;;;;;;;39.13;22.70;;;-1.60;47.70;;;;;;20899;6729;117884;-74
2024/01/11 03:56:21;;;;;;;34.97;21.40;;;-1.70;47.60;;;;;;20977;6729;117266;-75
2024/01/11 03:58:56;;;;;;;42.73;30.87;;;-1.80;48.20;;;;;;20685;6747;306755;-75
2024/01/11 04:01:33;;;;;;;44.20;31.80;;;-1.50;47.80;;;;;;20807;6713;305569;-75
2024/01/11 04:04:08;;;;;;;36.83;24.87;;;-1.50;47.80;;;;;;20856;6714;117517;-75
2024/01/11 04:06:45;;;;;;;43.43;32.07;;;-1.50;47.50;;;;;;20759;6729;307021;-75
2024/01/11 04:09:21;;;;;;;34.50;23.67;;;-1.50;47.20;;;;;;20977;6724;121040;-75
2024/01/11 04:11:56;;;;;;;41.80;31.63;;;-1.60;47.10;;;;;;20705;6746;278612;-74
2024/01/11 04:14:32;;;;;;;35.93;22.33;;;-1.60;47.10;;;;;;20748;6749;117613;-75
2024/01/11 04:17:08;;;;;;;33.83;20.77;;;-1.90;47.50;;;;;;20949;6731;119070;-78
2024/01/11 04:19:44;;;;;;;37.07;27.33;;;-2.00;47.40;;;;;;20803;6717;285885;-75
2024/01/11 04:22:19;;;;;;;36.47;28.40;;;-1.90;47.50;;;;;;20797;6717;305125;-75
2024/01/11 04:24:55;;;;;;;26.53;19.87;;;-1.70;47.40;;;;;;20786;6788;120580;-75
2024/01/11 04:27:31;;;;;;;35.27;26.50;;;-1.70;47.20;;;;;;20802;6717;306409;-75
2024/01/11 04:30:08;;;;;;;25.83;18.93;;;-1.80;47.40;;;;;;21033;6717;119956;-75
2024/01/11 05:18:37;;;;;;;35.23;19.70;;;-3.60;51.10;;;;;;21218;6502;91613;-77
2024/01/11 05:21:16;;;;;;;40.08;29.10;;;-3.70;51.10;;;;;;20751;6782;335579;-81
2024/01/11 05:23:42;;;;;;;43.60;32.53;;;-3.50;51.10;;;;;;20633;6791;278615;-79
2024/01/11 05:26:07;;;;;;;45.92;32.97;;;-2.90;50.20;;;;;;20520;6862;284993;-82
2024/01/11 05:28:33;;;;;;;38.73;24.47;;;-2.50;49.10;;;;;;20706;6872;117693;-80
2024/01/11 05:30:58;;;;;;;42.92;31.65;;;-2.40;48.60;;;;;;20474;6872;309720;-80
2024/01/11 05:33:24;;;;;;;31.43;22.23;;;-2.20;48.40;;;;;;20701;6872;117085;-82
2024/01/11 05:35:50;;;;;;;38.57;23.07;;;-2.30;48.00;;;;;;20721;6872;118937;-82
2024/01/11 05:38:15;;;;;;;42.40;31.98;;;-2.40;48.30;;;;;;20485;6875;309124;-82
2024/01/11 05:40:41;;;;;;;34.43;24.47;;;-2.40;48.30;;;;;;20680;6875;116863;-82
2024/01/11 05:43:06;;;;;;;32.97;22.03;;;-2.40;48.90;;;;;;20692;6875;68439;-81
2024/01/11 05:45:33;;;;;;;43.95;31.00;;;-2.50;48.40;;;;;;20516;6875;278278;-81
2024/01/11 05:47:57;;;;;;;43.80;32.35;;;-2.50;48.80;;;;;;20513;6875;308734;-81
2024/01/11 05:50:23;;;;;;;34.63;23.83;;;-2.10;48.60;;;;;;20725;6875;68030;-82
2024/01/11 05:52:48;;;;;;;41.33;30.77;;;-2.10;48.30;;;;;;20510;6875;278313;-81
2024/01/11 05:55:16;;;;;;;34.53;23.33;;;-2.10;48.20;;;;;;20722;6875;67614;-79
2024/01/11 05:57:42;;;;;;;38.70;22.77;;;-2.10;48.20;;;;;;20732;6875;67533;-80
2024/01/11 06:00:08;;;;;;;40.25;30.62;;;-2.20;48.50;;;;;;20516;6875;339594;-80
2024/01/11 06:02:33;;;;;;;35.47;22.97;;;-2.20;48.20;;;;;;20721;6875;68391;-83
2024/01/11 06:04:59;;;;;;;31.23;20.33;;;-2.20;47.90;;;;;;20703;6875;69161;-80
2024/01/11 06:07:24;;;;;;;40.08;29.58;;;-2.40;48.10;;;;;;20502;6875;279452;-81
2024/01/11 06:09:51;;;;;;;34.00;23.53;;;-2.40;48.10;;;;;;20701;6875;116956;-81
2024/01/11 06:12:18;;;;;;;41.60;23.70;;;-2.40;48.10;;;;;;20693;6875;120516;-80
2024/01/11 06:14:43;;;;;;;33.00;21.00;;;-2.50;48.30;;;;;;20741;6855;119956;-82
2024/01/11 06:17:10;;;;;;;35.93;20.90;;;-2.70;48.50;;;;;;20731;6855;117963;-82
2024/01/11 06:19:35;;;;;;;35.00;20.47;;;-2.80;48.70;;;;;;20739;6855;117834;-81
2024/01/11 06:22:00;;;;;;;44.93;32.07;;;-3.00;48.80;;;;;;20549;6852;280769;-81
2024/01/11 06:24:26;;;;;;;36.33;23.35;;;-2.70;48.90;;;;;;20767;6852;118345;-82
2024/01/11 06:26:52;;;;;;;41.97;31.10;;;-2.80;48.80;;;;;;20549;6852;309950;-81
2024/01/11 06:29:18;;;;;;;42.62;32.15;;;-2.60;49.00;;;;;;20573;6850;337798;-81
2024/01/11 06:31:43;;;;;;;36.53;23.80;;;-2.20;48.40;;;;;;20770;6851;116974;-81
2024/01/11 06:34:10;;;;;;;32.70;21.87;;;-2.40;48.30;;;;;;20782;6851;118007;-82
2024/01/11 06:36:35;;;;;;;32.93;20.87;;;-2.40;48.30;;;;;;20785;6851;116708;-81
2024/01/11 06:39:01;;;;;;;43.43;32.13;;;-2.50;48.60;;;;;;20536;6851;308288;-82
2024/01/11 06:41:26;;;;;;;45.60;35.03;;;-2.40;48.90;;;;;;20575;6851;307167;-81
2024/01/11 06:43:52;;;;;;;48.33;36.47;;;-2.10;48.10;;;;;;20566;6851;308207;-81
2024/01/11 06:46:27;;;;;;;46.40;35.37;;;-1.80;47.10;;;;;;20577;6851;279115;-81
2024/01/11 06:48:53;;;;;;;40.00;26.07;;;-1.60;46.60;;;;;;20761;6852;117947;-80
2024/01/11 06:51:22;;;;;;;40.10;25.60;;;-1.70;46.60;;;;;;20783;6852;117664;-82
2024/01/11 06:53:47;;;;;;;45.53;33.55;;;-1.90;47.10;;;;;;20564;6852;308458;-81
2024/01/11 06:56:16;;;;;;;41.88;26.60;;;-1.90;47.50;;;;;;20782;6852;118488;-81
2024/01/11 06:58:42;;;;;;;44.17;32.92;;;-1.90;47.50;;;;;;20544;6852;308328;-78
2024/01/11 07:01:07;;;;;;;45.53;34.37;;;-1.80;47.50;;;;;;20530;6852;309214;-79
2024/01/11 07:03:33;;;;;;;45.10;34.37;;;-1.60;46.80;;;;;;20464;6852;309322;-77
2024/01/11 07:05:58;;;;;;;40.58;26.25;;;-1.30;46.40;;;;;;20739;6852;120074;-77
2024/01/11 07:08:25;;;;;;;40.23;26.33;;;-1.70;46.70;;;;;;20738;6852;118114;-77
2024/01/11 07:10:50;;;;;;;45.87;34.10;;;-1.70;46.60;;;;;;20499;6852;308807;-79
2024/01/11 07:13:16;;;;;;;40.15;26.12;;;-1.70;46.60;;;;;;20745;6852;118455;-77
2024/01/11 07:15:42;;;;;;;33.60;23.07;;;-2.10;46.80;;;;;;20754;6852;118137;-79
2024/01/11 07:18:08;;;;;;;36.93;23.17;;;-2.10;46.80;;;;;;20746;6852;118403;-77
2024/01/11 07:20:33;;;;;;;42.53;32.10;;;-2.30;47.30;;;;;;20459;6852;308419;-77
2024/01/11 07:22:59;;;;;;;37.42;25.40;;;-2.20;47.50;;;;;;20755;6852;118907;-77
2024/01/11 07:25:25;;;;;;;37.78;23.38;;;-2.20;47.20;;;;;;20771;6852;118248;-77
2024/01/11 07:27:50;;;;;;;35.83;22.95;;;-2.40;47.30;;;;;;20758;6852;117928;-78
2024/01/11 07:30:17;;;;;;;40.87;24.80;;;-2.60;47.60;;;;;;20760;6852;117649;-75
2024/01/11 07:32:42;;;;;;;34.65;22.67;;;-2.70;48.00;;;;;;20749;6852;117729;-74
2024/01/11 07:35:10;;;;;;;45.97;33.77;;;-2.80;48.30;;;;;;20525;6852;309646;-75
2024/01/11 07:37:35;;;;;;;43.67;27.50;;;-2.70;48.30;;;;;;20767;6852;116804;-74
2024/01/11 07:40:00;;;;;;;39.35;25.70;;;-2.60;48.10;;;;;;20763;6850;118887;-75
2024/01/11 07:42:29;;;;;;;54.40;40.27;;;-2.60;48.20;;;;;;20544;6851;279990;-75
2024/01/11 07:44:54;;;;;;;41.90;24.90;;;-2.50;48.60;;;;;;20729;6851;120171;-78
2024/01/11 07:47:20;;;;;;;42.83;30.73;;;-2.40;48.50;;;;;;20535;6851;279468;-75
2024/01/11 07:49:45;;;;;;;42.40;31.37;;;-2.30;48.10;;;;;;20540;6851;308022;-75
2024/01/11 07:52:11;;;;;;;40.43;31.17;;;-2.00;47.50;;;;;;20537;6851;309708;-74
2024/01/11 07:54:37;;;;;;;55.10;39.60;;;-1.70;46.80;;;;;;20542;6851;280960;-75
2024/01/11 07:57:02;;;;;;;50.17;35.93;;;-1.50;46.10;;;;;;20518;6851;341768;-75
2024/01/11 07:59:28;;;;;;;54.75;40.10;;;-1.40;45.50;;;;;;20524;6851;338306;-75
2024/01/11 08:01:54;;;;;;;44.73;27.77;;;-1.30;45.00;;;;;;20726;6852;118189;-75
2024/01/11 08:04:20;;;;;;;62.77;36.13;;;-1.60;45.20;;;;;;20743;6852;118202;-78
2024/01/11 08:06:46;;;;;;;63.33;45.00;;;-1.80;45.90;;;;;;20572;6852;290199;-78
2024/01/11 08:09:13;;;;;;;60.10;42.57;;;-1.90;46.20;;;;;;20559;6852;278717;-79
2024/01/11 08:11:37;;;;;;;48.67;36.60;;;-1.60;46.10;;;;;;20525;6852;311376;-78
2024/01/11 08:14:05;;;;;;;37.72;24.92;;;-1.40;45.80;;;;;;20794;6852;116871;-78
2024/01/11 08:16:31;;;;;;;45.87;33.20;;;-1.50;45.70;;;;;;20582;6852;321630;-81
2024/01/11 08:18:58;;;;;;;34.83;23.70;;;-1.50;46.00;;;;;;20770;6852;117543;-80
2024/01/11 08:21:24;;;;;;;42.62;31.35;;;-1.50;46.20;;;;;;20541;6852;308700;-77
2024/01/11 08:23:49;;;;;;;34.88;23.50;;;-1.40;46.60;;;;;;20756;6852;118157;-80
2024/01/11 08:26:14;;;;;;;35.90;24.00;;;-1.40;46.70;;;;;;20761;6852;118220;-80
2024/01/11 08:28:40;;;;;;;38.03;29.07;;;-1.50;47.20;;;;;;20548;6852;290910;-81
2024/01/11 08:31:06;;;;;;;43.10;32.50;;;-1.40;47.30;;;;;;20528;6852;310352;-81
2024/01/11 08:33:31;;;;;;;37.88;25.75;;;-1.10;46.70;;;;;;20756;6852;117808;-80
2024/01/11 08:35:57;;;;;;;34.25;22.10;;;-1.10;46.40;;;;;;20758;6852;119406;-78
2024/01/11 08:38:24;;;;;;;44.87;33.57;;;-1.30;46.60;;;;;;20544;6852;310049;-80
2024/01/11 08:40:48;;;;;;;38.72;24.92;;;-1.20;47.20;;;;;;20758;6852;117209;-81
2024/01/11 08:43:13;;;;;;;39.83;30.80;;;-1.20;47.20;;;;;;20520;6852;338164;-83
2024/01/11 08:45:40;;;;;;;40.43;30.33;;;-1.10;47.30;;;;;;20530;6852;279481;-82
2024/01/11 08:48:06;;;;;;;38.27;30.17;;;-0.80;46.60;;;;;;20519;6852;351425;-83
2024/01/11 08:50:32;;;;;;;37.97;29.60;;;-0.50;46.30;;;;;;20531;6852;310524;-79
2024/01/11 08:52:57;;;;;;;36.35;24.30;;;-0.40;45.60;;;;;;20735;6850;118825;-78
2024/01/11 08:55:23;;;;;;;29.98;21.73;;;-0.40;45.90;;;;;;20768;6851;118706;-80
2024/01/11 08:57:48;;;;;;;34.57;28.10;;;-0.70;46.20;;;;;;20578;6836;284772;-80
2024/01/11 09:00:17;;;;;;;38.10;30.27;;;-0.50;46.30;;;;;;20541;6836;280141;-80
2024/01/11 09:02:41;;;;;;;40.08;31.62;;;-0.50;46.90;;;;;;20538;6852;339209;-81
2024/01/11 09:05:08;;;;;;;37.20;24.10;;;-0.30;45.40;;;;;;20734;6852;119543;-83
2024/01/11 09:07:34;;;;;;;43.90;31.97;;;-0.40;45.40;;;;;;20547;6853;308546;-85
2024/01/11 09:10:00;;;;;;;41.58;32.45;;;-0.40;46.00;;;;;;20544;6845;307280;-83
2024/01/11 09:12:26;;;;;;;43.80;27.05;;;-0.30;45.40;;;;;;20816;6841;122841;-83
2024/01/11 09:14:52;;;;;;;36.57;24.17;;;-0.30;45.40;;;;;;20715;6866;120736;-83
2024/01/11 09:17:17;;;;;;;44.97;33.92;;;-0.50;45.80;;;;;;20591;6845;308286;-83
2024/01/11 09:19:43;;;;;;;44.17;33.70;;;-0.60;46.00;;;;;;20590;6845;310689;-84
2024/01/11 09:22:09;;;;;;;40.05;25.77;;;-0.40;46.10;;;;;;20806;6845;117584;-83
2024/01/11 09:24:34;;;;;;;39.17;24.40;;;-0.40;46.10;;;;;;20780;6848;117768;-84
2024/01/11 09:27:00;;;;;;;56.70;36.58;;;-0.60;46.50;;;;;;20585;6848;309196;-84
2024/01/11 09:29:26;;;;;;;46.25;26.85;;;-0.50;46.80;;;;;;20808;6849;117839;-84
2024/01/11 09:31:51;;;;;;;39.75;26.15;;;-0.50;46.70;;;;;;20798;6849;118007;-83
2024/01/11 09:34:17;;;;;;;43.05;24.92;;;-0.60;47.10;;;;;;20805;6849;116816;-83
2024/01/11 09:36:42;;;;;;;47.15;27.10;;;-0.80;47.20;;;;;;20791;6849;118120;-84
2024/01/11 09:39:08;;;;;;;39.38;24.55;;;-0.90;47.50;;;;;;20775;6849;120540;-84
2024/01/11 09:41:33;;;;;;;43.25;24.87;;;-1.00;47.90;;;;;;20801;6849;117135;-83
2024/01/11 09:43:59;;;;;;;54.70;35.30;;;-1.10;48.20;;;;;;20567;6849;278534;-84
2024/01/11 09:46:26;;;;;;;44.80;28.85;;;-1.00;48.20;;;;;;20793;6849;117265;-83
2024/01/11 09:48:51;;;;;;;54.97;36.80;;;-0.90;48.00;;;;;;20551;6849;307771;-84
2024/01/11 09:51:17;;;;;;;47.00;29.77;;;-0.70;48.00;;;;;;20812;6849;116830;-82
2024/01/11 09:53:42;;;;;;;55.15;38.40;;;-0.70;47.80;;;;;;20591;6849;307733;-83
2024/01/11 09:56:09;;;;;;;47.70;29.30;;;-0.60;48.90;;;;;;20815;6849;117742;-83
2024/01/11 09:58:33;;;;;;;47.35;27.33;;;-0.50;48.40;;;;;;20808;6849;118890;-84
2024/01/11 10:00:59;;;;;;;41.13;26.83;;;-0.60;48.60;;;;;;20770;6849;117682;-84
2024/01/11 10:03:26;;;;;;;55.43;38.30;;;-0.70;48.90;;;;;;20578;6847;278654;-83
2024/01/11 10:05:51;;;;;;;60.40;42.63;;;-0.50;49.30;;;;;;20562;6848;308582;-80
2024/01/11 10:08:18;;;;;;;56.03;41.33;;;-0.10;48.80;;;;;;20535;6848;337291;-81
2024/01/11 10:10:43;;;;;;;48.03;30.77;;;0.30;48.10;;;;;;20747;6848;117633;-80
2024/01/11 10:13:09;;;;;;;46.83;28.97;;;0.30;48.10;;;;;;20758;6848;190212;-82
2024/01/11 10:15:34;;;;;;;42.67;27.10;;;0.20;48.40;;;;;;20783;6848;118733;-83
2024/01/11 10:18:01;;;;;;;44.20;26.87;;;0.10;48.70;;;;;;20773;6848;117985;-79
2024/01/11 10:20:29;;;;;;;53.22;37.90;;;0.00;49.10;;;;;;20561;6848;279041;-78
2024/01/11 10:22:52;;;;;;;51.10;38.40;;;0.30;49.30;;;;;;20518;6848;310398;-79
2024/01/11 10:25:18;;;;;;;49.90;38.93;;;0.60;47.90;;;;;;20560;6848;308140;-79
2024/01/11 10:27:44;;;;;;;48.42;31.33;;;1.00;47.30;;;;;;20771;6848;117496;-79
2024/01/11 10:30:09;;;;;;;52.10;38.10;;;1.00;47.10;;;;;;20459;6848;307637;-80
2024/01/11 10:32:36;;;;;;;42.30;30.37;;;1.20;47.10;;;;;;20744;6848;117413;-81
2024/01/11 10:35:04;;;;;;;38.87;26.73;;;1.10;47.00;;;;;;20726;6849;117801;-79
2024/01/11 10:37:27;;;;;;;49.37;37.47;;;1.10;47.40;;;;;;20543;6848;296942;-85
2024/01/11 10:39:54;;;;;;;42.17;30.30;;;1.20;47.70;;;;;;20752;6848;118302;-81
2024/01/11 10:42:20;;;;;;;44.53;28.10;;;1.20;47.60;;;;;;20754;6848;121942;-79
2024/01/11 10:44:45;;;;;;;41.83;28.38;;;1.20;47.80;;;;;;20744;6848;117939;-81
2024/01/11 10:47:12;;;;;;;43.22;26.23;;;1.10;47.90;;;;;;20665;6848;116659;-79
2024/01/11 10:49:38;;;;;;;41.87;26.50;;;1.00;47.90;;;;;;20766;6848;117858;-79
2024/01/11 10:52:05;;;;;;;51.50;37.73;;;0.90;48.20;;;;;;20540;6848;308856;-78
2024/01/11 10:54:30;;;;;;;44.50;30.70;;;0.90;48.00;;;;;;20751;6848;119799;-78
2024/01/11 10:56:55;;;;;;;51.53;40.10;;;1.00;47.90;;;;;;20530;6848;278761;-80
2024/01/11 10:59:24;;;;;;;51.63;40.27;;;1.20;47.40;;;;;;20526;6849;308859;-75
2024/01/11 11:01:47;;;;;;;51.23;40.10;;;1.40;46.70;;;;;;20530;6849;309119;-76
2024/01/11 11:04:12;;;;;;;52.17;40.20;;;1.70;46.30;;;;;;20534;6849;308241;-77
2024/01/11 11:06:38;;;;;;;49.07;39.00;;;1.80;45.90;;;;;;20535;6848;279244;-76
2024/01/11 11:09:03;;;;;;;52.37;39.03;;;2.00;45.50;;;;;;20523;6848;279472;-76
2024/01/11 11:11:32;;;;;;;43.05;29.50;;;2.20;45.30;;;;;;20747;6848;117799;-75
2024/01/11 11:13:58;;;;;;;50.60;38.90;;;2.00;45.40;;;;;;20520;6848;280426;-75
2024/01/11 11:16:24;;;;;;;49.17;38.77;;;2.00;45.60;;;;;;20523;6847;295874;-77
2024/01/11 11:18:49;;;;;;;45.28;30.85;;;2.20;45.50;;;;;;20757;6848;117506;-77
2024/01/11 11:21:15;;;;;;;52.13;39.03;;;2.10;45.40;;;;;;20506;6848;338945;-76
2024/01/11 11:23:41;;;;;;;45.33;30.90;;;2.00;45.40;;;;;;20763;6849;119674;-76
2024/01/11 11:26:08;;;;;;;49.87;37.70;;;1.90;45.60;;;;;;20554;6849;278334;-77
2024/01/11 11:28:34;;;;;;;43.97;30.37;;;1.90;45.60;;;;;;20730;6848;117953;-74
2024/01/11 11:30:59;;;;;;;48.90;38.37;;;1.90;45.60;;;;;;20527;6849;307853;-73
2024/01/11 11:33:24;;;;;;;44.30;31.42;;;1.90;45.90;;;;;;20755;6848;117836;-74
2024/01/11 11:35:54;;;;;;;40.10;28.23;;;1.90;46.20;;;;;;20759;6848;117639;-75
2024/01/11 11:38:20;;;;;;;43.57;29.47;;;1.70;47.00;;;;;;20754;6848;117539;-74
2024/01/11 11:40:45;;;;;;;49.30;37.35;;;1.70;47.00;;;;;;20506;6848;309409;-75
2024/01/11 11:43:11;;;;;;;50.27;40.07;;;1.80;46.90;;;;;;20509;6848;279170;-76
2024/01/11 11:45:41;;;;;;;50.67;41.33;;;2.40;45.90;;;;;;20536;6849;310023;-77
2024/01/11 11:48:29;;;;;;;48.87;39.53;;;2.40;45.90;;;;;;20544;6848;309551;-76
2024/01/11 11:51:09;;;;;;;43.23;30.70;;;2.50;44.70;;;;;;20743;6849;118218;-77
2024/01/11 11:53:34;;;;;;;46.83;38.20;;;2.50;45.20;;;;;;20526;6848;307679;-80
2024/01/11 11:56:00;;;;;;;52.80;40.37;;;2.50;45.00;;;;;;20546;6848;308556;-76
2024/01/11 11:58:25;;;;;;;49.40;39.50;;;2.60;44.80;;;;;;20533;6849;307779;-79
2024/01/11 12:00:51;;;;;;;50.03;41.27;;;2.70;44.60;;;;;;20523;6849;308249;-79
2024/01/11 12:03:17;;;;;;;42.43;31.10;;;2.90;44.30;;;;;;20849;6653;122431;-79
2024/01/11 12:05:53;;;;;;;46.23;30.10;;;2.50;45.20;;;;;;20832;6752;117619;-80
2024/01/11 12:08:29;;;;;;;48.10;30.60;;;2.40;45.80;;;;;;20783;6767;117209;-79
2024/01/11 12:11:05;;;;;;;47.03;30.33;;;2.20;45.80;;;;;;20797;6763;118522;-79
2024/01/11 12:13:40;;;;;;;52.57;39.70;;;1.90;46.10;;;;;;20550;6764;309320;-79
2024/01/11 12:16:15;;;;;;;45.70;30.80;;;2.00;46.10;;;;;;20930;6734;117222;-78
2024/01/11 12:18:51;;;;;;;40.17;28.87;;;2.00;46.20;;;;;;20926;6734;117509;-79
2024/01/11 12:21:26;;;;;;;47.83;30.07;;;1.80;46.50;;;;;;20955;6733;120055;-79
2024/01/11 12:24:02;;;;;;;56.57;40.23;;;1.70;46.90;;;;;;20675;6723;308111;-77
2024/01/11 12:26:38;;;;;;;53.00;40.80;;;1.80;46.90;;;;;;20738;6736;277693;-77
2024/01/11 12:29:15;;;;;;;51.23;39.87;;;2.40;46.10;;;;;;20771;6715;276173;-78
2024/01/11 12:31:51;;;;;;;47.30;32.80;;;2.30;46.00;;;;;;20984;6717;117055;-77
2024/01/11 12:34:30;;;;;;;46.50;30.97;;;2.30;46.00;;;;;;20784;6750;123684;-77
2024/01/11 12:37:05;;;;;;;44.90;28.57;;;2.10;46.50;;;;;;20897;6753;118526;-77
2024/01/11 12:39:39;;;;;;;49.00;38.17;;;1.90;46.90;;;;;;20644;6759;306461;-83
2024/01/11 12:42:14;;;;;;;49.83;40.80;;;2.10;46.90;;;;;;20704;6745;306977;-78
2024/01/11 12:44:50;;;;;;;45.77;30.93;;;2.40;46.50;;;;;;20688;6748;122374;-80
2024/01/11 12:47:26;;;;;;;53.70;40.80;;;2.40;46.40;;;;;;20685;6746;279089;-76
2024/01/11 12:50:04;;;;;;;53.63;40.93;;;2.70;46.00;;;;;;20642;6754;307082;-79
2024/01/11 12:52:44;;;;;;;46.80;32.53;;;2.70;46.00;;;;;;20891;6760;119779;-80
2024/01/11 12:55:19;;;;;;;47.73;30.57;;;2.70;46.00;;;;;;20945;6736;119501;-81
2024/01/11 12:58:11;;;;;;;52.60;40.92;;;2.50;46.50;;;;;;20710;6736;277780;-80
2024/01/11 13:00:49;;;;;;;45.33;30.93;;;2.50;46.20;;;;;;20880;6754;117232;-79
2024/01/11 13:03:22;;;;;;;41.53;29.30;;;2.40;46.20;;;;;;20729;6769;122737;-76
2024/01/11 13:06:01;;;;;;;50.23;39.03;;;2.20;46.60;;;;;;20653;6735;278094;-80
2024/01/11 13:08:39;;;;;;;51.80;33.73;;;2.40;46.70;;;;;;20919;6735;121039;-80
2024/01/11 13:11:16;;;;;;;47.70;30.83;;;2.40;46.80;;;;;;21001;6723;117885;-78
2024/01/11 13:13:48;;;;;;;50.70;39.40;;;2.30;47.00;;;;;;20679;6738;306727;-80
2024/01/11 13:16:33;;;;;;;46.33;31.97;;;2.40;46.60;;;;;;21001;6751;116018;-80
2024/01/11 13:19:00;;;;;;;47.83;30.23;;;2.50;46.60;;;;;;20777;6761;117568;-80
2024/01/11 13:21:35;;;;;;;45.37;28.57;;;2.30;46.90;;;;;;20931;6748;116328;-81
2024/01/11 13:24:15;;;;;;;37.87;26.17;;;2.10;47.40;;;;;;20709;6761;117796;-80